首页
METAR-TAF:

METAR-TAF

机场 :

布尔戈斯, 西班牙

纬度: 42-22N, 经度: 003-38W, 海拔: 894米

当前天气观测

该预报发布于28分钟前的18:00 UTC
风速6节,风向
温度 2°C
湿度 93%
气压 1014 hPa
能见度10公里或以上
1500米以下无云,无积雨云

METAR: LEBG 191800Z 18006KT CAVOK 02/01 Q1014

时间: 19:28 (18:28 UTC)

预报

该预报发布于1小时和28分钟前的17:00 UTC
预报有效从19日的 18点(UTC)到 20日的 03点(UTC)
风速7节,风向南转西南
能见度10公里或以上
少量云层高于1500英尺

TAF: LEBG 191700Z 1918/2003 20007KT 9999 FEW015

超过4000个机场的气象观测和天气预报(METAR&TAF报告)。

可查询的气象台以黄色和红色小点在地图上表示。

将鼠标移到小点上方,可查看气象台名称。

然后点击查看天气观测和预报。

如需切换地图:点击带黑十字的绿色按钮放大地图;点击带横线的绿色按钮缩小地图;或者点击绿色箭头查看邻近地区的地图。


METAR-TAF: